Time;durP1;ratioP1;P1;durP2;ratioP2;P2;SDS_P1;SDS_P2;PMS_P1;PMS_P2;Temp;Humidity;BMP_temperature;BMP_pressure;BME280_temperature;BME280_humidity;BME280_pressure;Samples;Min_cycle;Max_cycle;Signal;HPM_P1;HPM_P2
2024/02/19 00:00:05;;;;;;;16.60;10.33;;;9.80;99.90;;;;;;772642;184;26497;-78
2024/02/19 00:02:31;;;;;;;17.27;8.77;;;9.80;99.90;;;;;;770946;184;26493;-77
2024/02/19 00:04:58;;;;;;;21.83;10.50;;;9.80;99.90;;;;;;768116;184;26626;-77
2024/02/19 00:07:24;;;;;;;25.80;11.53;;;9.80;99.90;;;;;;768406;184;26488;-77
2024/02/19 00:09:51;;;;;;;23.07;10.60;;;9.90;99.90;;;;;;772648;184;26509;-76
2024/02/19 00:12:18;;;;;;;16.73;8.93;;;9.80;99.90;;;;;;783406;181;26473;-77
2024/02/19 00:14:44;;;;;;;21.03;10.23;;;9.80;99.90;;;;;;780408;181;26465;-77
2024/02/19 00:17:11;;;;;;;22.37;9.57;;;9.80;99.90;;;;;;767810;184;26530;-75
2024/02/19 00:19:39;;;;;;;23.43;10.53;;;9.80;99.90;;;;;;773937;184;26510;-77
2024/02/19 00:22:06;;;;;;;23.00;12.33;;;9.70;99.90;;;;;;792085;180;26466;-77
2024/02/19 00:24:31;;;;;;;24.77;11.80;;;9.70;99.90;;;;;;791889;180;26455;-77
2024/02/19 00:26:57;;;;;;;29.13;12.47;;;9.70;99.90;;;;;;784673;180;26464;-76
2024/02/19 00:29:24;;;;;;;26.33;13.57;;;9.60;99.90;;;;;;795761;179;26462;-78
2024/02/19 00:31:50;;;;;;;27.10;13.80;;;9.60;99.90;;;;;;790919;181;26439;-78
2024/02/19 00:34:17;;;;;;;23.67;12.37;;;9.60;99.90;;;;;;790889;180;26479;-78
2024/02/19 00:36:44;;;;;;;21.07;9.33;;;9.50;99.90;;;;;;789451;181;26468;-76
2024/02/19 00:39:10;;;;;;;25.07;11.33;;;9.50;99.90;;;;;;792754;180;26570;-78
2024/02/19 00:41:37;;;;;;;29.40;12.63;;;9.50;99.90;;;;;;789096;179;26983;-78
2024/02/19 00:44:03;;;;;;;26.07;13.73;;;9.50;99.90;;;;;;792342;180;27629;-78
2024/02/19 00:46:30;;;;;;;23.43;12.67;;;9.50;99.90;;;;;;788854;181;26452;-79
2024/02/19 00:48:57;;;;;;;21.30;10.30;;;9.50;99.90;;;;;;791426;180;26445;-77
2024/02/19 00:51:23;;;;;;;28.43;12.07;;;9.50;99.90;;;;;;792303;181;26748;-78
2024/02/19 00:53:50;;;;;;;21.77;11.33;;;9.40;99.90;;;;;;777401;181;26463;-78
2024/02/19 00:56:16;;;;;;;24.47;11.57;;;9.50;99.90;;;;;;767079;185;26472;-78
2024/02/19 00:58:43;;;;;;;21.40;9.87;;;9.50;99.90;;;;;;790818;180;26612;-77
2024/02/19 01:01:10;;;;;;;19.47;9.60;;;9.40;99.90;;;;;;792423;180;26430;-77
2024/02/19 01:03:36;;;;;;;22.63;9.80;;;9.50;99.90;;;;;;793478;176;26423;-77
2024/02/19 01:06:03;;;;;;;17.67;8.47;;;9.40;99.90;;;;;;793973;180;26430;-77
2024/02/19 01:08:29;;;;;;;21.60;8.40;;;9.50;99.90;;;;;;790461;179;26971;-77
2024/02/19 01:10:56;;;;;;;18.97;8.23;;;9.50;99.90;;;;;;787925;181;26471;-76
2024/02/19 01:13:23;;;;;;;22.93;7.40;;;9.50;99.90;;;;;;788155;180;27091;-76
2024/02/19 01:15:49;;;;;;;20.30;6.93;;;9.40;99.90;;;;;;788524;180;26479;-77
2024/02/19 01:18:16;;;;;;;19.67;6.87;;;9.50;99.90;;;;;;788374;181;26506;-77
2024/02/19 01:20:43;;;;;;;18.40;6.23;;;9.40;99.90;;;;;;789154;181;26460;-77
2024/02/19 01:23:09;;;;;;;14.13;5.20;;;9.40;99.90;;;;;;786553;181;26448;-77
2024/02/19 01:25:36;;;;;;;15.73;5.70;;;9.50;99.90;;;;;;771212;184;26472;-77
2024/02/19 01:28:02;;;;;;;14.87;5.90;;;9.50;99.90;;;;;;764689;181;26567;-77
2024/02/19 01:30:29;;;;;;;13.80;4.83;;;9.50;99.90;;;;;;768985;184;27069;-77
2024/02/19 01:32:55;;;;;;;12.77;4.97;;;9.50;99.90;;;;;;778605;181;26534;-77
2024/02/19 01:35:22;;;;;;;13.93;5.60;;;9.50;99.90;;;;;;785125;180;26473;-78
2024/02/19 01:37:48;;;;;;;15.50;4.53;;;9.50;99.90;;;;;;785969;181;26553;-78
2024/02/19 01:40:15;;;;;;;15.97;4.70;;;9.50;99.90;;;;;;792210;180;27097;-78
2024/02/19 01:42:42;;;;;;;21.73;5.63;;;9.50;99.90;;;;;;774851;183;26474;-78
2024/02/19 01:45:08;;;;;;;12.20;5.30;;;9.50;99.90;;;;;;784456;181;27031;-78
2024/02/19 01:47:35;;;;;;;17.43;5.87;;;9.50;99.90;;;;;;785819;181;26486;-77
2024/02/19 01:50:01;;;;;;;13.93;4.83;;;9.50;99.90;;;;;;778018;181;26516;-77
2024/02/19 01:52:28;;;;;;;16.33;5.17;;;9.40;99.90;;;;;;784565;181;26452;-76
2024/02/19 01:54:55;;;;;;;16.10;5.57;;;9.50;99.90;;;;;;783325;181;26448;-76
2024/02/19 01:57:21;;;;;;;20.50;5.57;;;9.40;99.90;;;;;;779227;181;26467;-76
2024/02/19 01:59:48;;;;;;;18.83;5.67;;;9.40;99.90;;;;;;770240;184;26607;-77
2024/02/19 02:02:14;;;;;;;18.37;5.90;;;9.40;99.90;;;;;;770929;183;26525;-76
2024/02/19 02:04:41;;;;;;;14.63;5.07;;;9.40;99.90;;;;;;769782;184;26499;-77
2024/02/19 02:07:08;;;;;;;18.00;5.40;;;9.30;99.90;;;;;;769928;184;26570;-76
2024/02/19 02:09:34;;;;;;;13.70;4.97;;;9.20;99.90;;;;;;788203;181;27088;-76
2024/02/19 02:12:01;;;;;;;14.70;5.07;;;9.20;99.90;;;;;;788881;181;26609;-76
2024/02/19 02:14:28;;;;;;;18.70;5.07;;;9.20;99.90;;;;;;789336;181;26976;-77
2024/02/19 02:16:54;;;;;;;21.33;5.13;;;9.20;99.90;;;;;;787362;180;26455;-76
2024/02/19 02:19:21;;;;;;;15.83;5.20;;;9.10;99.90;;;;;;787749;180;26538;-75
2024/02/19 02:21:48;;;;;;;14.17;4.20;;;9.10;99.90;;;;;;787801;180;26430;-76
2024/02/19 02:24:15;;;;;;;17.80;4.93;;;9.10;99.90;;;;;;792253;180;26972;-77
2024/02/19 02:26:42;;;;;;;17.77;4.37;;;9.10;99.90;;;;;;792059;180;26484;-77
2024/02/19 02:29:08;;;;;;;14.10;3.50;;;9.20;99.90;;;;;;776370;184;26488;-76
2024/02/19 02:31:35;;;;;;;13.60;3.33;;;9.20;99.90;;;;;;772138;183;27031;-76
2024/02/19 02:34:01;;;;;;;16.37;4.30;;;9.20;99.90;;;;;;777901;183;26466;-77
2024/02/19 02:36:29;;;;;;;18.97;4.20;;;9.20;99.90;;;;;;788773;180;26511;-77
2024/02/19 02:38:54;;;;;;;21.47;3.83;;;9.20;99.90;;;;;;771475;184;26627;-75
2024/02/19 02:41:21;;;;;;;17.90;4.33;;;9.20;99.90;;;;;;787325;181;26467;-76
2024/02/19 02:43:48;;;;;;;17.73;3.67;;;9.20;99.90;;;;;;784724;181;26443;-76
2024/02/19 02:46:15;;;;;;;9.30;2.37;;;9.20;99.90;;;;;;786027;181;26486;-76
2024/02/19 02:48:42;;;;;;;9.07;3.43;;;9.30;99.90;;;;;;764206;183;26529;-76
2024/02/19 02:51:08;;;;;;;14.77;3.27;;;9.30;99.90;;;;;;769882;182;26515;-75
2024/02/19 02:53:35;;;;;;;15.23;4.00;;;9.30;99.90;;;;;;771401;184;26615;-75
2024/02/19 02:56:01;;;;;;;15.40;3.87;;;9.30;99.90;;;;;;770385;184;26505;-76
2024/02/19 02:58:28;;;;;;;13.53;3.30;;;9.30;99.90;;;;;;791452;179;26509;-75
2024/02/19 03:00:55;;;;;;;14.03;3.30;;;9.30;99.90;;;;;;789771;179;26602;-75
2024/02/19 03:03:21;;;;;;;15.77;3.53;;;9.30;99.90;;;;;;786049;180;27021;-76
2024/02/19 03:05:48;;;;;;;12.13;3.63;;;9.20;99.90;;;;;;790402;180;26458;-76
2024/02/19 03:08:14;;;;;;;16.57;4.23;;;9.20;99.90;;;;;;789258;180;26447;-74
2024/02/19 03:10:42;;;;;;;15.80;5.10;;;9.20;99.90;;;;;;792524;180;26428;-76
2024/02/19 03:13:08;;;;;;;16.93;4.20;;;9.20;99.90;;;;;;790336;181;26451;-77
2024/02/19 03:15:35;;;;;;;16.07;3.90;;;9.20;99.90;;;;;;793139;180;27083;-77
2024/02/19 03:18:02;;;;;;;17.93;4.43;;;9.20;99.90;;;;;;793322;180;26470;-76
2024/02/19 03:20:28;;;;;;;17.87;4.40;;;9.20;99.90;;;;;;791582;181;26432;-77
2024/02/19 03:22:55;;;;;;;13.57;4.17;;;9.20;99.90;;;;;;790928;180;26584;-77
2024/02/19 03:25:22;;;;;;;11.83;3.40;;;9.20;99.90;;;;;;790039;181;27051;-76
2024/02/19 03:27:48;;;;;;;18.37;3.93;;;9.10;99.90;;;;;;790396;180;26460;-77
2024/02/19 03:30:15;;;;;;;16.60;4.57;;;9.20;99.90;;;;;;788430;180;26435;-77
2024/02/19 03:32:41;;;;;;;19.30;4.30;;;9.20;99.90;;;;;;790174;179;26619;-78
2024/02/19 03:35:08;;;;;;;19.93;3.80;;;9.20;99.90;;;;;;791694;180;26992;-77
2024/02/19 03:37:34;;;;;;;14.67;4.37;;;9.10;99.90;;;;;;790574;179;26465;-77
2024/02/19 03:40:01;;;;;;;20.13;4.60;;;9.20;99.90;;;;;;790002;180;26423;-75
2024/02/19 03:42:28;;;;;;;16.37;4.20;;;9.10;99.90;;;;;;785964;181;26426;-75
2024/02/19 03:44:55;;;;;;;16.60;3.90;;;9.10;99.90;;;;;;788961;179;26431;-77
2024/02/19 03:47:21;;;;;;;13.50;3.70;;;9.10;99.90;;;;;;788175;181;26988;-76
2024/02/19 03:49:47;;;;;;;20.57;5.13;;;9.10;99.90;;;;;;790110;180;26443;-76
2024/02/19 03:52:14;;;;;;;11.60;3.30;;;9.10;99.90;;;;;;791608;178;26419;-77
2024/02/19 03:54:41;;;;;;;14.07;3.40;;;9.10;99.90;;;;;;789230;181;26431;-76
2024/02/19 03:57:08;;;;;;;15.67;4.43;;;9.10;99.90;;;;;;787883;181;27060;-76
2024/02/19 03:59:34;;;;;;;14.47;3.37;;;9.10;99.90;;;;;;788228;180;26471;-76
2024/02/19 04:02:01;;;;;;;17.57;3.63;;;9.10;99.90;;;;;;788801;180;27001;-76
2024/02/19 04:04:28;;;;;;;18.13;3.33;;;9.10;99.90;;;;;;790415;180;26450;-76
2024/02/19 04:06:54;;;;;;;11.60;3.27;;;9.10;99.90;;;;;;785443;181;26450;-76
2024/02/19 04:09:21;;;;;;;15.27;3.37;;;9.10;99.90;;;;;;789215;179;26439;-76
2024/02/19 04:11:47;;;;;;;15.43;3.10;;;9.00;99.90;;;;;;791084;179;26426;-76
2024/02/19 04:14:14;;;;;;;15.37;3.40;;;9.10;99.90;;;;;;791868;180;26584;-76
2024/02/19 04:16:42;;;;;;;15.03;3.60;;;9.10;99.90;;;;;;789631;180;26450;-77
2024/02/19 04:19:09;;;;;;;14.47;3.63;;;9.10;99.90;;;;;;791905;177;26507;-76
2024/02/19 04:21:36;;;;;;;12.77;3.93;;;9.10;99.90;;;;;;789729;179;26584;-77
2024/02/19 04:24:02;;;;;;;15.63;3.23;;;9.00;99.90;;;;;;788315;178;26466;-77
2024/02/19 04:26:29;;;;;;;17.90;4.20;;;9.00;99.90;;;;;;790830;180;27399;-76
2024/02/19 04:28:56;;;;;;;12.70;3.43;;;9.00;99.90;;;;;;788377;181;26433;-76
2024/02/19 04:31:22;;;;;;;14.67;3.90;;;9.00;99.90;;;;;;789761;180;26991;-76
2024/02/19 04:33:49;;;;;;;14.07;4.30;;;9.00;99.90;;;;;;789685;176;26504;-77
2024/02/19 04:36:15;;;;;;;13.43;3.90;;;9.00;99.90;;;;;;792844;180;27071;-77
2024/02/19 04:38:42;;;;;;;15.67;3.70;;;9.10;99.90;;;;;;789683;180;26516;-77
2024/02/19 04:41:08;;;;;;;16.33;4.53;;;9.10;99.90;;;;;;788390;181;27025;-77
2024/02/19 04:43:35;;;;;;;19.43;4.17;;;9.10;99.90;;;;;;787742;181;26427;-77
2024/02/19 04:46:02;;;;;;;14.07;3.87;;;9.10;99.90;;;;;;790937;180;27031;-77
2024/02/19 04:48:30;;;;;;;15.57;3.90;;;9.20;99.90;;;;;;797187;174;26454;-77
2024/02/19 04:50:57;;;;;;;17.37;4.60;;;9.30;99.90;;;;;;800880;178;26427;-78
2024/02/19 04:53:30;;;;;;;17.83;4.23;;;9.20;99.90;;;;;;803840;177;27018;-79
2024/02/19 04:56:00;;;;;;;10.57;3.70;;;9.30;99.90;;;;;;804131;177;26467;-78
2024/02/19 04:58:26;;;;;;;19.13;3.70;;;9.30;99.90;;;;;;791360;177;27080;-77
2024/02/19 05:00:55;;;;;;;17.50;4.00;;;9.20;99.90;;;;;;781565;181;26495;-78
2024/02/19 05:03:22;;;;;;;13.73;3.83;;;9.30;99.90;;;;;;785106;180;26437;-77
2024/02/19 05:05:53;;;;;;;14.90;4.30;;;9.30;99.90;;;;;;784991;180;26507;-77
2024/02/19 05:08:23;;;;;;;16.20;3.77;;;9.30;99.90;;;;;;780138;180;27033;-78
2024/02/19 05:10:55;;;;;;;15.37;3.70;;;9.30;99.90;;;;;;779521;182;26461;-79
2024/02/19 05:13:23;;;;;;;12.87;3.33;;;9.20;99.90;;;;;;779335;182;26436;-77
2024/02/19 05:15:50;;;;;;;17.77;3.60;;;9.20;99.90;;;;;;783718;181;26460;-79
2024/02/19 05:18:21;;;;;;;14.37;3.57;;;9.30;99.90;;;;;;779976;181;26458;-78
2024/02/19 05:20:48;;;;;;;12.13;3.50;;;9.30;99.90;;;;;;782665;181;26987;-79
2024/02/19 05:23:18;;;;;;;19.40;3.50;;;9.30;99.90;;;;;;785157;180;26455;-75
2024/02/19 05:25:44;;;;;;;15.83;4.13;;;9.30;99.90;;;;;;787202;179;27108;-79
2024/02/19 05:28:12;;;;;;;15.73;3.50;;;9.30;99.90;;;;;;783930;177;26456;-78
2024/02/19 05:30:38;;;;;;;13.07;3.53;;;9.30;99.90;;;;;;779224;182;26462;-79
2024/02/19 05:33:07;;;;;;;17.97;3.93;;;9.30;99.90;;;;;;778538;181;26449;-79
2024/02/19 05:35:33;;;;;;;12.00;3.33;;;9.30;99.90;;;;;;781592;181;27024;-77
2024/02/19 05:38:01;;;;;;;14.27;3.93;;;9.30;99.90;;;;;;787442;181;26505;-79
2024/02/19 05:40:29;;;;;;;17.70;3.20;;;9.30;99.90;;;;;;788189;180;26460;-76
2024/02/19 05:42:57;;;;;;;15.00;3.33;;;9.30;99.90;;;;;;779540;180;26438;-78
2024/02/19 05:45:24;;;;;;;15.80;3.60;;;9.30;99.90;;;;;;769060;184;26514;-79
2024/02/19 05:47:51;;;;;;;11.60;4.63;;;9.30;99.90;;;;;;781421;178;27055;-77
2024/02/19 05:50:18;;;;;;;13.53;3.70;;;9.30;99.90;;;;;;778562;181;26442;-77
2024/02/19 05:52:44;;;;;;;16.40;3.37;;;9.30;99.90;;;;;;779586;180;26496;-76
2024/02/19 05:55:10;;;;;;;17.73;4.43;;;9.40;99.90;;;;;;782001;181;26532;-76
2024/02/19 05:57:37;;;;;;;14.87;2.93;;;9.40;99.90;;;;;;783251;180;27090;-77
2024/02/19 06:00:05;;;;;;;12.27;3.20;;;9.40;99.90;;;;;;781418;180;26460;-77
2024/02/19 06:02:30;;;;;;;14.43;3.30;;;9.30;99.90;;;;;;782145;180;26467;-78
2024/02/19 06:04:57;;;;;;;10.17;3.57;;;9.30;99.90;;;;;;780886;181;27071;-77
2024/02/19 06:07:24;;;;;;;13.83;3.40;;;9.30;99.90;;;;;;783056;181;26579;-78
2024/02/19 06:09:50;;;;;;;13.20;3.40;;;9.30;99.90;;;;;;779692;179;27007;-77
2024/02/19 06:12:17;;;;;;;10.87;2.77;;;9.30;99.90;;;;;;785758;178;26450;-78
2024/02/19 06:14:43;;;;;;;17.97;3.40;;;9.30;99.90;;;;;;780805;180;27076;-78
2024/02/19 06:17:10;;;;;;;11.50;3.10;;;9.30;99.90;;;;;;777726;181;26494;-78
2024/02/19 06:19:37;;;;;;;11.97;3.30;;;9.30;99.90;;;;;;779461;180;26452;-77
2024/02/19 06:22:03;;;;;;;10.33;3.00;;;9.30;99.90;;;;;;782837;181;27016;-78
2024/02/19 06:24:30;;;;;;;12.50;3.20;;;9.30;99.90;;;;;;780126;180;26497;-79
2024/02/19 06:26:56;;;;;;;14.03;3.20;;;9.30;99.90;;;;;;781329;181;30036;-76
2024/02/19 06:29:23;;;;;;;18.47;4.37;;;9.30;99.90;;;;;;783929;180;26439;-78
2024/02/19 06:31:52;;;;;;;14.33;4.23;;;9.30;99.90;;;;;;786047;181;26999;-79
2024/02/19 06:34:16;;;;;;;8.90;3.20;;;9.30;99.90;;;;;;790235;179;26452;-78
2024/02/19 06:36:43;;;;;;;10.57;3.00;;;9.30;99.90;;;;;;787483;181;26562;-80
2024/02/19 06:39:09;;;;;;;19.47;3.70;;;9.30;99.90;;;;;;781169;181;26447;-79
2024/02/19 06:41:36;;;;;;;11.63;3.33;;;9.30;99.90;;;;;;787017;182;26444;-77
2024/02/19 06:44:03;;;;;;;14.17;3.67;;;9.40;99.90;;;;;;787436;181;26474;-78
2024/02/19 06:46:29;;;;;;;14.27;4.47;;;9.40;99.90;;;;;;781825;181;26444;-79
2024/02/19 06:48:59;;;;;;;14.50;3.60;;;9.30;99.90;;;;;;781317;180;27056;-78
2024/02/19 06:51:22;;;;;;;10.90;3.80;;;9.30;99.90;;;;;;781595;180;26452;-79
2024/02/19 06:53:49;;;;;;;14.17;3.50;;;9.30;99.90;;;;;;779957;180;26982;-79
2024/02/19 06:56:15;;;;;;;12.10;4.00;;;9.30;99.90;;;;;;784280;182;26482;-78
2024/02/19 06:58:42;;;;;;;13.63;4.10;;;9.30;99.90;;;;;;784296;182;26493;-77
2024/02/19 07:01:09;;;;;;;8.00;3.20;;;9.40;99.90;;;;;;785183;180;26448;-79
2024/02/19 07:03:35;;;;;;;15.63;3.93;;;9.30;99.90;;;;;;789845;182;26452;-78
2024/02/19 07:06:02;;;;;;;12.10;3.93;;;9.40;99.90;;;;;;777044;185;26446;-77
2024/02/19 07:08:28;;;;;;;13.97;4.60;;;9.30;99.90;;;;;;778679;184;26475;-81
2024/02/19 07:10:55;;;;;;;15.87;4.53;;;9.40;99.90;;;;;;776329;182;26442;-79
2024/02/19 07:13:22;;;;;;;11.83;3.73;;;9.30;99.90;;;;;;777297;185;26442;-78
2024/02/19 07:15:48;;;;;;;14.23;3.80;;;9.40;99.90;;;;;;778330;182;26455;-77
2024/02/19 07:18:15;;;;;;;15.43;4.53;;;9.40;99.90;;;;;;777963;185;26489;-78
2024/02/19 07:20:41;;;;;;;13.87;4.47;;;9.50;99.90;;;;;;782524;181;26445;-79
2024/02/19 07:23:08;;;;;;;11.13;3.33;;;9.50;99.90;;;;;;782484;180;26463;-76
2024/02/19 07:25:35;;;;;;;13.33;3.70;;;9.50;99.90;;;;;;777889;181;26491;-77
2024/02/19 07:28:01;;;;;;;13.00;3.70;;;9.60;99.90;;;;;;783344;180;26481;-78
2024/02/19 07:30:28;;;;;;;14.33;3.90;;;9.60;99.90;;;;;;782000;180;26437;-78
2024/02/19 07:32:54;;;;;;;13.83;4.20;;;9.60;99.90;;;;;;787197;181;26439;-78
2024/02/19 07:35:21;;;;;;;14.63;4.50;;;9.60;99.90;;;;;;787608;181;26450;-77
2024/02/19 07:37:48;;;;;;;10.03;3.50;;;9.60;99.90;;;;;;786622;180;26557;-78
2024/02/19 07:40:14;;;;;;;15.33;4.30;;;9.60;99.90;;;;;;777647;182;26446;-77
2024/02/19 07:42:42;;;;;;;12.93;3.97;;;9.60;99.90;;;;;;781178;182;26510;-79
2024/02/19 07:45:08;;;;;;;13.37;3.87;;;9.70;99.90;;;;;;777280;182;27002;-78
2024/02/19 07:47:35;;;;;;;13.43;3.87;;;9.70;99.90;;;;;;785076;180;26486;-78
2024/02/19 07:50:02;;;;;;;16.37;4.23;;;9.60;99.90;;;;;;783426;182;26466;-79
2024/02/19 07:52:28;;;;;;;16.33;4.30;;;9.70;99.90;;;;;;785667;181;26462;-79
2024/02/19 07:54:55;;;;;;;13.13;3.90;;;9.70;99.90;;;;;;778696;182;26441;-77
2024/02/19 07:57:21;;;;;;;13.63;3.80;;;9.70;99.90;;;;;;784958;181;26828;-78
2024/02/19 07:59:48;;;;;;;16.20;3.77;;;9.70;99.90;;;;;;783125;182;26431;-79
2024/02/19 08:02:15;;;;;;;12.63;4.27;;;9.80;99.90;;;;;;782138;181;26497;-78
2024/02/19 08:04:41;;;;;;;15.97;4.27;;;9.90;99.90;;;;;;783194;181;26991;-79
2024/02/19 08:07:08;;;;;;;13.87;3.67;;;9.90;99.90;;;;;;787091;180;26469;-78
2024/02/19 08:09:34;;;;;;;16.10;4.17;;;9.90;99.90;;;;;;784683;179;26453;-78
2024/02/19 08:12:02;;;;;;;16.20;4.53;;;10.00;99.90;;;;;;780491;182;26456;-80
2024/02/19 08:14:29;;;;;;;15.57;4.97;;;10.00;99.90;;;;;;788229;180;26461;-78
2024/02/19 08:16:55;;;;;;;15.33;4.00;;;10.10;99.90;;;;;;788443;180;26611;-78
2024/02/19 08:19:22;;;;;;;14.03;3.90;;;10.20;99.90;;;;;;786523;181;26513;-78
2024/02/19 08:21:49;;;;;;;11.27;3.80;;;10.20;99.90;;;;;;790630;179;26468;-79
2024/02/19 08:24:15;;;;;;;15.47;4.40;;;10.20;99.90;;;;;;790423;180;28089;-79
2024/02/19 08:26:42;;;;;;;15.97;4.70;;;10.20;99.90;;;;;;785395;180;26462;-79
2024/02/19 08:29:09;;;;;;;15.90;4.40;;;10.40;99.90;;;;;;787803;180;26461;-79
2024/02/19 08:31:35;;;;;;;11.40;4.43;;;10.40;99.90;;;;;;793402;180;26439;-78
2024/02/19 08:34:02;;;;;;;13.43;4.60;;;10.50;99.90;;;;;;783370;181;26416;-78
2024/02/19 08:36:28;;;;;;;16.80;4.53;;;10.50;99.90;;;;;;783244;183;26461;-80
2024/02/19 08:38:55;;;;;;;14.40;4.83;;;10.60;99.90;;;;;;783554;180;26487;-78
2024/02/19 08:41:21;;;;;;;22.50;4.67;;;10.60;99.90;;;;;;788338;181;26436;-79
2024/02/19 08:43:48;;;;;;;18.00;4.37;;;10.70;99.90;;;;;;790277;181;26442;-79
2024/02/19 08:46:15;;;;;;;18.93;4.70;;;10.70;99.90;;;;;;794986;181;26456;-78
2024/02/19 08:48:41;;;;;;;12.77;4.37;;;10.80;99.90;;;;;;789941;179;27012;-78
2024/02/19 08:51:08;;;;;;;13.93;4.00;;;10.90;99.90;;;;;;788077;179;26464;-77
2024/02/19 08:53:34;;;;;;;11.43;4.30;;;10.90;99.90;;;;;;786866;179;26974;-79
2024/02/19 08:56:01;;;;;;;16.47;4.77;;;10.90;99.90;;;;;;793114;179;26458;-79
2024/02/19 08:58:30;;;;;;;16.83;4.60;;;10.90;99.90;;;;;;795457;179;26494;-79
2024/02/19 09:00:57;;;;;;;12.87;5.03;;;11.00;99.90;;;;;;786976;180;27064;-77
2024/02/19 09:03:21;;;;;;;16.60;4.60;;;11.00;99.90;;;;;;787173;180;26448;-77
2024/02/19 09:05:47;;;;;;;14.40;5.40;;;11.10;99.90;;;;;;787479;180;26449;-76
2024/02/19 09:08:14;;;;;;;18.30;5.23;;;11.10;99.90;;;;;;786721;180;26532;-76
2024/02/19 09:10:41;;;;;;;15.07;5.07;;;11.10;99.90;;;;;;781918;179;27023;-79
2024/02/19 09:13:07;;;;;;;17.20;5.80;;;11.20;99.90;;;;;;783138;180;26486;-78
2024/02/19 09:15:34;;;;;;;12.23;4.83;;;11.20;99.90;;;;;;783010;182;26513;-78
2024/02/19 09:18:01;;;;;;;17.07;4.83;;;11.30;99.90;;;;;;784156;180;26472;-80
2024/02/19 09:20:27;;;;;;;16.53;6.07;;;11.30;99.90;;;;;;783988;181;26430;-78
2024/02/19 09:22:54;;;;;;;15.77;5.63;;;11.30;99.90;;;;;;782473;181;26455;-78
2024/02/19 09:25:20;;;;;;;17.97;5.77;;;11.20;99.90;;;;;;785328;181;26969;-78
2024/02/19 09:27:47;;;;;;;14.50;5.90;;;11.10;99.90;;;;;;778041;181;26471;-78
2024/02/19 09:30:14;;;;;;;20.43;6.23;;;11.20;99.90;;;;;;788504;180;26970;-78
2024/02/19 09:32:41;;;;;;;24.47;9.57;;;11.20;99.90;;;;;;782126;179;26587;-78
2024/02/19 09:35:08;;;;;;;22.93;8.40;;;11.30;99.90;;;;;;778714;181;26612;-80
2024/02/19 09:37:34;;;;;;;22.93;8.50;;;11.30;99.90;;;;;;780696;181;27015;-76
2024/02/19 09:40:01;;;;;;;20.00;8.80;;;11.40;99.90;;;;;;778519;182;26441;-77
2024/02/19 09:42:27;;;;;;;19.97;8.30;;;11.50;99.90;;;;;;777189;181;26438;-78
2024/02/19 09:44:54;;;;;;;22.93;8.90;;;11.60;99.90;;;;;;782179;182;26425;-79
2024/02/19 09:47:21;;;;;;;21.53;8.47;;;11.70;99.90;;;;;;780315;181;26499;-79
2024/02/19 09:49:50;;;;;;;21.20;8.20;;;11.90;99.90;;;;;;780945;180;26442;-80
2024/02/19 09:52:25;;;;;;;19.63;8.13;;;12.00;99.90;;;;;;778442;181;26453;-78
2024/02/19 09:54:52;;;;;;;18.53;8.70;;;12.10;99.90;;;;;;784957;182;26472;-77
2024/02/19 09:57:19;;;;;;;20.50;8.87;;;12.00;99.90;;;;;;789492;181;26468;-81
2024/02/19 09:59:47;;;;;;;19.57;8.60;;;11.90;99.90;;;;;;787726;181;26442;-80
2024/02/19 10:02:18;;;;;;;25.77;8.77;;;12.00;99.90;;;;;;780284;180;26446;-78
2024/02/19 10:04:39;;;;;;;22.57;8.77;;;12.10;99.90;;;;;;781048;182;26470;-79
2024/02/19 10:07:06;;;;;;;18.13;8.90;;;12.10;99.90;;;;;;780188;181;26465;-80
2024/02/19 10:09:33;;;;;;;23.97;9.37;;;12.20;99.90;;;;;;779511;181;26436;-81
2024/02/19 10:12:02;;;;;;;22.67;8.93;;;12.30;99.90;;;;;;785151;181;26462;-76
2024/02/19 10:14:27;;;;;;;21.10;9.07;;;12.30;99.90;;;;;;781031;180;26461;-79
2024/02/19 10:16:53;;;;;;;23.00;9.30;;;12.40;99.90;;;;;;788124;179;26448;-80
2024/02/19 10:19:20;;;;;;;20.90;10.30;;;12.70;99.90;;;;;;781709;181;26469;-79
2024/02/19 10:21:49;;;;;;;29.77;15.40;;;12.70;99.90;;;;;;780580;182;26444;-79
2024/02/19 10:24:17;;;;;;;24.27;11.33;;;12.90;99.90;;;;;;778359;181;26468;-80
2024/02/19 10:26:45;;;;;;;17.60;8.40;;;13.00;99.90;;;;;;780047;181;26442;-79
2024/02/19 10:40:09;;;;;;;28.13;13.53;;;12.50;99.90;;;;;;791696;180;26423;-79
2024/02/19 10:42:36;;;;;;;34.50;17.10;;;12.60;99.90;;;;;;789841;180;26456;-79
2024/02/19 10:45:03;;;;;;;33.93;19.37;;;12.70;99.90;;;;;;789451;180;26611;-80
2024/02/19 10:47:29;;;;;;;28.27;13.70;;;12.70;99.90;;;;;;793425;173;26522;-80
2024/02/19 10:49:58;;;;;;;20.63;8.77;;;12.60;99.90;;;;;;811331;176;26471;-79
2024/02/19 10:52:24;;;;;;;19.33;9.10;;;12.60;99.90;;;;;;811204;176;26426;-81
2024/02/19 10:54:56;;;;;;;36.13;17.77;;;12.60;99.90;;;;;;811580;173;26482;-83
2024/02/19 10:57:21;;;;;;;17.20;8.03;;;12.50;99.90;;;;;;811564;173;26433;-81
2024/02/19 10:59:48;;;;;;;19.87;9.40;;;12.40;99.90;;;;;;799121;176;26431;-78
2024/02/19 11:02:25;;;;;;;19.10;8.37;;;12.40;99.90;;;;;;798491;176;26436;-81
2024/02/19 11:04:51;;;;;;;19.90;8.83;;;12.40;99.90;;;;;;801262;178;26455;-82
2024/02/19 11:07:17;;;;;;;22.53;11.33;;;12.60;99.90;;;;;;785668;181;26562;-81
2024/02/19 11:09:44;;;;;;;41.60;21.47;;;12.70;99.90;;;;;;782926;181;26463;-81
2024/02/19 11:12:13;;;;;;;22.90;10.77;;;12.60;99.90;;;;;;796301;178;26455;-80
2024/02/19 11:14:40;;;;;;;32.17;18.20;;;12.70;99.90;;;;;;772818;184;26499;-79
2024/02/19 11:17:06;;;;;;;65.30;34.33;;;12.70;99.90;;;;;;770949;184;27095;-78
2024/02/19 11:19:38;;;;;;;43.07;21.77;;;12.80;99.90;;;;;;767183;184;27012;-78
2024/02/19 11:22:08;;;;;;;94.43;43.17;;;13.00;99.90;;;;;;761747;184;26522;-80
2024/02/19 11:24:33;;;;;;;40.53;20.80;;;13.10;99.90;;;;;;790992;178;26504;-79
2024/02/19 11:27:00;;;;;;;27.03;13.33;;;13.20;99.90;;;;;;795996;176;27016;-80
2024/02/19 11:29:26;;;;;;;28.40;17.83;;;13.50;99.90;;;;;;795453;177;26456;-79
2024/02/19 11:31:59;;;;;;;31.53;18.00;;;13.70;99.90;;;;;;795023;178;26496;-80
2024/02/19 11:34:25;;;;;;;20.83;9.80;;;14.00;99.40;;;;;;795279;178;26463;-78
2024/02/19 11:36:52;;;;;;;22.27;11.93;;;14.00;99.60;;;;;;795798;176;26448;-79
2024/02/19 11:39:19;;;;;;;23.23;9.83;;;14.20;98.40;;;;;;795739;178;27089;-77
2024/02/19 11:41:45;;;;;;;37.87;20.97;;;14.00;99.80;;;;;;795655;178;27112;-77
2024/02/19 11:44:14;;;;;;;29.93;15.57;;;14.00;98.10;;;;;;795484;177;26790;-80
2024/02/19 11:46:40;;;;;;;23.97;10.83;;;13.60;98.60;;;;;;796211;180;26493;-80
2024/02/19 11:49:06;;;;;;;22.53;11.03;;;13.50;99.20;;;;;;794290;178;26465;-80
2024/02/19 11:51:35;;;;;;;22.77;9.57;;;13.50;99.90;;;;;;800648;178;27002;-80
2024/02/19 11:53:59;;;;;;;22.83;10.57;;;13.30;99.60;;;;;;794826;180;26441;-79
2024/02/19 11:56:26;;;;;;;21.60;11.03;;;13.20;99.90;;;;;;795165;178;28056;-79
2024/02/19 11:58:52;;;;;;;25.17;11.60;;;12.90;99.90;;;;;;798569;178;26444;-80
2024/02/19 12:01:20;;;;;;;24.80;12.37;;;12.80;99.90;;;;;;795881;178;26442;-81
2024/02/19 12:03:46;;;;;;;17.47;9.30;;;12.70;99.90;;;;;;797058;178;26999;-77
2024/02/19 12:06:12;;;;;;;26.13;13.73;;;12.60;99.90;;;;;;791710;181;26471;-80
2024/02/19 12:08:42;;;;;;;27.17;12.60;;;12.60;99.90;;;;;;796664;180;26493;-80
2024/02/19 12:11:07;;;;;;;29.00;15.90;;;12.70;99.90;;;;;;797066;180;26456;-81
2024/02/19 12:13:35;;;;;;;29.97;15.50;;;12.90;99.90;;;;;;805540;178;26425;-78
2024/02/19 12:16:02;;;;;;;31.77;16.20;;;12.80;99.90;;;;;;791098;180;26512;-80
2024/02/19 12:18:29;;;;;;;26.90;12.73;;;12.80;99.90;;;;;;791301;181;27017;-80
2024/02/19 12:20:54;;;;;;;22.23;11.50;;;12.70;99.90;;;;;;795015;180;26476;-81
2024/02/19 12:23:21;;;;;;;26.27;14.63;;;12.70;99.90;;;;;;806797;176;27039;-80
2024/02/19 12:25:47;;;;;;;24.17;10.20;;;12.50;99.90;;;;;;804522;177;26438;-79
2024/02/19 12:28:14;;;;;;;23.40;12.77;;;12.40;99.90;;;;;;804632;177;27039;-80
2024/02/19 12:30:44;;;;;;;29.90;14.73;;;12.30;99.90;;;;;;797179;178;26448;-78
2024/02/19 12:33:11;;;;;;;24.03;9.87;;;12.30;99.90;;;;;;799304;174;26456;-78
2024/02/19 12:35:38;;;;;;;22.57;9.97;;;12.20;99.90;;;;;;798984;177;26429;-80
2024/02/19 12:38:04;;;;;;;18.47;10.43;;;12.30;99.90;;;;;;796026;178;26468;-79
2024/02/19 12:40:31;;;;;;;32.87;16.73;;;12.40;99.90;;;;;;797680;178;26460;-79
2024/02/19 12:42:58;;;;;;;57.37;31.10;;;12.50;99.90;;;;;;800864;178;26467;-80
2024/02/19 12:45:25;;;;;;;29.53;15.23;;;12.60;99.90;;;;;;800486;178;26494;-78
2024/02/19 12:47:52;;;;;;;30.57;17.37;;;12.80;99.90;;;;;;799787;178;26452;-79